Terminal Aerodrome Forecast
Issued by NWS

Current Version | Previous Version | Text Only | Print | Product List | Glossary Off
Versions: 1 2 3 4 5 6 7 8 9 10 11 12 13 14 15 16 17 18 19 20 21 22

715
FTUS41 KPBZ 232320
TAFHLG
TAF
KHLG 232320Z 2400/2424 16007KT P6SM BKN120
     FM240900 09006KT P6SM -RA OVC050
     FM241500 12010G20KT 5SM -RA OVC015
     FM242100 12012G25KT P6SM OVC025=

USA.gov is the U.S. government's official web portal to all federal, state and local government web resources and services.